Latest Weather Observations for Parkes Airport

IDN60801

Issued at 12:03 pm EST Friday 22 September 2017 (issued every 30 minutes, with the page automatically refreshed every 10 minutes)

About weather observations | Map of weather stations | Latest weather observations for NSW | Other Formats
Station Details ID: 065068 Name: PARKES AIRPORT AWS Lat: -33.13 Lon: 148.24 Height: 323.3 m
Data from the previous 72 hours. | See also: Recent months at Parkes Airport
Date/Time
EST
Temp
°C
App
Temp
°C
Dew
Point
°C
Rel
Hum
%
Delta-T
°C
Wind Press
QNH
hPa
Press
MSL
hPa
Rain since
9am
mm
Dir  Spd
km/h
Gust
km/h
Spd
kts
Gust
kts
22/12:00pm 25.2 18.1 -4.2 14 12.7 N 24 33 13 18 1013.6 1013.5 0.0
22/11:30am 24.5 18.2 -1.3 18 11.7 NNW 22 30 12 16 1014.1 1013.9 0.0
22/11:00am 24.3 17.7 -3.1 16 12.0 NNW 22 35 12 19 1014.4 1014.3 0.0
22/10:30am 24.6 17.6 -3.7 15 12.3 NNW 24 32 13 17 1014.5 1014.4 0.0
22/10:00am 24.2 17.8 -1.6 18 11.6 N 22 30 12 16 1015.0 1014.9 0.0
22/09:30am 23.6 17.9 -0.6 20 11.1 N 19 24 10 13 1015.3 1015.2 0.0
22/09:00am 21.0 19.0 6.2 38 7.6 NNE 6 11 3 6 1015.2 1015.1 0.0
22/08:30am 16.8 16.0 6.3 50 5.2 CALM 0 6 0 3 1015.7 1015.6 0.0
22/08:00am 14.2 11.9 5.0 54 4.4 N 6 7 3 4 1015.3 1015.2 0.0
22/07:30am 10.7 6.9 1.8 54 3.8 NE 11 17 6 9 1015.4 1015.3 0.0
22/07:00am 7.4 3.9 1.5 66 2.4 NNE 9 9 5 5 1015.5 1015.4 0.0
22/06:30am 5.4 1.7 0.0 68 2.1 NNE 9 11 5 6 1015.2 1015.1 0.0
22/06:00am 3.6 -0.2 -1.0 72 1.7 NE 9 11 5 6 1014.9 1014.8 0.0
22/05:30am 4.6 0.8 -0.6 69 2.0 NNE 9 11 5 6 1014.9 1014.8 0.0
22/05:00am 3.9 0.2 -0.3 74 1.6 NE 9 11 5 6 1014.4 1014.3 0.0
22/04:30am 4.8 1.1 0.0 71 1.9 NE 9 11 5 6 1014.1 1013.9 0.0
22/04:00am 3.7 0.0 0.1 77 1.4 NNE 9 11 5 6 1014.2 1014.0 0.0
22/03:30am 3.8 -0.7 0.0 76 1.5 NE 13 15 7 8 1014.3 1014.2 0.0
22/03:00am 5.7 1.1 -0.8 63 2.5 NE 13 15 7 8 1014.5 1014.4 0.0
22/02:30am 6.0 1.9 -0.3 64 2.5 ENE 11 13 6 7 1014.5 1014.4 0.0
22/02:00am 6.4 2.4 0.3 65 2.4 NE 11 13 6 7 1014.7 1014.6 0.0
22/01:30am 5.9 2.6 0.0 66 2.3 NNE 7 9 4 5 1014.9 1014.8 0.0
22/01:00am 5.8 2.5 0.2 67 2.2 N 7 9 4 5 1014.9 1014.8 0.0
22/12:30am 6.6 2.9 0.1 63 2.6 NE 9 11 5 6 1014.6 1014.5 0.0
22/12:00am 6.2 1.5 1.1 70 2.1 ENE 15 17 8 9 1014.6 1014.5 0.0
 
Date/Time
EST
Temp
°C
App
Temp
°C
Dew
Point
°C
Rel
Hum
%
Delta-T
°C
Wind Press
QNH
hPa
Press
MSL
hPa
Rain since
9am
mm
Dir  Spd
km/h
Gust
km/h
Spd
kts
Gust
kts
21/11:30pm 5.9 2.0 0.9 70 2.0 NE 11 13 6 7 1014.8 1014.7 0.0
21/11:00pm 5.8 1.9 1.2 72 1.9 NNE 11 13 6 7 1015.0 1014.9 0.0
21/10:30pm 6.7 3.1 0.8 66 2.4 N 9 11 5 6 1015.2 1015.1 0.0
21/10:00pm 5.6 1.7 1.3 74 1.7 NE 11 13 6 7 1015.2 1015.1 0.0
21/09:30pm 8.7 5.6 1.1 59 3.2 NNE 7 9 4 5 1015.3 1015.2 0.0
21/09:00pm 7.3 3.8 1.4 66 2.4 NE 9 11 5 6 1015.3 1015.2 0.0
21/08:30pm 11.9 8.9 2.1 51 4.3 NE 7 11 4 6 1015.4 1015.3 0.0
21/08:00pm 8.4 4.1 1.1 60 3.0 E 13 15 7 8 1015.2 1015.1 0.0
21/07:30pm 11.9 7.3 1.5 49 4.5 E 15 15 8 8 1015.2 1015.1 0.0
21/07:00pm 11.9 8.4 1.3 48 4.6 ENE 9 11 5 6 1015.0 1014.9 0.0
21/06:30pm 13.6 10.5 1.3 43 5.4 NE 7 9 4 5 1014.8 1014.7 0.0
21/06:26pm 13.8 10.7 1.5 43 5.4 NE 7 9 4 5 1014.8 1014.7 0.0
21/06:00pm 18.8 15.5 -0.1 28 8.4 NNW 7 9 4 5 1014.5 1014.4 0.0
21/05:30pm 19.2 15.5 2.6 33 7.8 NNW 11 11 6 6 1014.2 1014.0 0.0
21/05:00pm 21.0 16.8 1.8 28 9.0 NNW 13 15 7 8 1014.1 1013.9 0.0
21/04:30pm 22.6 18.9 2.1 26 9.8 NNW 11 15 6 8 1013.9 1013.8 0.0
21/04:00pm 23.3 18.5 0.4 22 10.6 N 15 20 8 11 1014.1 1013.9 0.0
21/03:30pm 24.0 19.7 1.0 22 10.9 N 13 20 7 11 1013.9 1013.8 0.0
21/03:00pm 23.7 19.5 -0.6 20 11.1 NNW 11 17 6 9 1013.9 1013.8 0.0
21/02:30pm 23.5 18.9 -1.4 19 11.2 NNW 13 19 7 10 1014.3 1014.2 0.0
21/02:00pm 23.6 19.3 -1.3 19 11.2 N 11 17 6 9 1014.6 1014.5 0.0
21/01:30pm 23.6 18.9 0.7 22 10.7 N 15 22 8 12 1015.0 1014.9 0.0
21/01:00pm 23.5 19.5 0.6 22 10.7 NNW 11 19 6 10 1015.5 1015.4 0.0
21/12:30pm 22.6 17.8 -2.2 19 10.9 NNW 13 24 7 13 1016.0 1015.9 0.0
21/12:00pm 21.9 18.1 -0.8 22 10.2 N 9 13 5 7 1016.5 1016.4 0.0
21/11:30am 20.9 17.2 0.2 25 9.4 NW 9 17 5 9 1016.9 1016.9 0.0
21/11:00am 20.8 17.1 2.1 29 8.8 NNW 11 19 6 10 1017.5 1017.4 0.0
21/10:30am 20.0 16.4 2.8 32 8.2 N 11 17 6 9 1017.9 1017.8 0.0
21/10:00am 18.9 15.6 4.7 39 6.9 NNW 11 15 6 8 1018.1 1018.0 0.0
21/09:30am 17.3 14.3 4.3 42 6.2 N 9 13 5 7 1018.3 1018.2 0.0
21/09:09am 15.9 13.6 4.6 47 5.4 N 6 11 3 6 1018.4 1018.3 0.0
21/09:00am 15.2 13.2 4.6 49 5.0 NNE 4 9 2 5 1018.4 1018.3 0.0
21/08:51am 14.8 12.6 5.1 52 4.6 NE 6 7 3 4 1018.4 1018.3 0.0
21/08:30am 12.8 10.2 4.3 56 3.9 NE 7 11 4 6 1018.3 1018.2 0.0
21/08:00am 9.5 8.1 5.3 75 1.9 NE 2 6 1 3 1018.6 1018.5 0.0
21/07:30am 7.1 4.4 3.7 79 1.5 NE 7 9 4 5 1018.6 1018.5 0.0
21/07:00am 5.1 1.5 3.1 87 0.8 ENE 11 15 6 8 1018.3 1018.2 0.0
21/06:30am 1.0 -2.7 0.0 93 0.4 NE 9 11 5 6 1017.9 1017.8 0.0
21/06:00am 0.9 -2.4 -0.1 93 0.4 NE 7 9 4 5 1017.4 1017.3 0.0
21/05:30am 0.1 -3.7 -1.0 92 0.4 NNE 9 11 5 6 1016.9 1016.9 0.0
21/05:00am 0.8 -2.9 -0.2 93 0.4 NE 9 11 5 6 1016.8 1016.8 0.0
21/04:30am 0.3 -3.5 -1.0 91 0.5 NE 9 11 5 6 1016.7 1016.6 0.0
21/04:00am 1.4 -1.9 -0.2 89 0.6 ENE 7 11 4 6 1016.7 1016.6 0.0
21/03:30am 0.8 -2.6 -0.6 90 0.5 NNE 7 9 4 5 1016.8 1016.8 0.0
21/03:00am 2.2 -1.8 0.4 88 0.7 ENE 11 11 6 6 1017.0 1017.0 0.0
21/02:30am 0.9 -3.2 -0.1 93 0.4 NE 11 13 6 7 1017.3 1017.2 0.0
21/02:00am 1.0 -2.4 -0.3 91 0.5 NNE 7 9 4 5 1017.5 1017.4 0.0
21/01:30am 1.4 -1.9 0.1 91 0.5 NNW 7 9 4 5 1017.8 1017.7 0.0
21/01:00am 1.4 -2.3 -0.1 90 0.6 NE 9 11 5 6 1017.9 1017.8 0.0
21/12:30am 2.0 -1.1 0.4 89 0.6 N 6 9 3 5 1018.2 1018.1 0.0
21/12:00am 2.5 -0.7 0.6 87 0.7 NE 7 11 4 6 1018.4 1018.3 0.0
 
Date/Time
EST
Temp
°C
App
Temp
°C
Dew
Point
°C
Rel
Hum
%
Delta-T
°C
Wind Press
QNH
hPa
Press
MSL
hPa
Rain since
9am
mm
Dir  Spd
km/h
Gust
km/h
Spd
kts
Gust
kts
20/11:30pm 3.8 -0.4 1.7 86 0.8 ENE 13 17 7 9 1018.6 1018.5 0.0
20/11:00pm 3.0 -0.1 1.2 88 0.7 NE 7 9 4 5 1019.0 1018.9 0.0
20/10:30pm 3.6 -0.2 1.6 87 0.8 NE 11 13 6 7 1019.3 1019.2 0.0
20/10:00pm 3.6 0.1 1.0 83 1.0 NE 9 13 5 7 1019.5 1019.5 0.0
20/09:30pm 4.6 1.1 1.1 78 1.4 ENE 9 11 5 6 1019.6 1019.6 0.0
20/09:00pm 5.2 2.2 1.7 78 1.4 NNE 7 7 4 4 1019.7 1019.7 0.0
20/08:30pm 6.0 3.0 2.1 76 1.6 ENE 7 9 4 5 1019.5 1019.5 0.0
20/08:00pm 5.3 1.4 1.2 75 1.6 ENE 11 13 6 7 1019.2 1019.1 0.0
20/07:30pm 7.9 6.3 2.2 67 2.4 CALM 0 6 0 3 1019.0 1018.9 0.0
20/07:00pm 10.9 7.6 2.7 57 3.6 S 9 11 5 6 1018.8 1018.7 0.0
20/06:30pm 11.2 7.6 2.8 56 3.7 SSW 11 13 6 7 1018.9 1018.8 0.0
20/06:00pm 13.1 9.4 2.4 48 4.8 SW 11 11 6 6 1018.5 1018.4 0.0
20/05:30pm 15.7 11.6 2.2 40 6.1 SW 13 15 7 8 1018.2 1018.1 0.0
20/05:00pm 17.0 12.3 1.0 34 7.1 SW 15 19 8 10 1018.1 1018.0 0.0
20/04:30pm 17.7 12.7 1.2 33 7.5 SW 17 20 9 11 1018.0 1017.9 0.0
20/04:00pm 17.5 13.1 0.6 32 7.5 SW 13 20 7 11 1018.0 1017.9 0.0
20/03:30pm 18.2 13.9 1.3 32 7.7 SW 13 17 7 9 1018.1 1018.0 0.0
20/03:00pm 17.7 13.0 1.2 33 7.4 WSW 15 20 8 11 1018.1 1018.0 0.0
20/02:30pm 17.9 13.3 1.8 34 7.4 WSW 15 20 8 11 1018.3 1018.2 0.0
20/02:00pm 17.8 13.5 1.3 33 7.5 WSW 13 19 7 10 1018.6 1018.5 0.0
20/01:30pm 17.4 13.1 1.0 33 7.4 WSW 13 20 7 11 1019.0 1018.9 0.0
20/01:00pm 16.3 11.5 0.0 33 7.1 SSW 15 28 8 15 1019.5 1019.5 0.0
20/12:30pm 16.5 12.0 2.2 38 6.5 SSW 15 26 8 14 1020.0 1020.0 0.0
20/12:00pm 15.6 10.5 0.6 36 6.5 S 17 26 9 14 1020.7 1020.6 0.0
20/11:30am 15.4 11.2 1.5 39 6.2 SSE 13 24 7 13 1021.0 1020.9 0.0
20/11:00am 14.8 10.7 2.0 42 5.7 SE 13 20 7 11 1021.4 1021.3 0.0
20/10:30am 14.2 11.3 2.5 45 5.3 SSE 7 13 4 7 1021.6 1021.5 0.0
20/10:00am 13.2 9.6 3.0 50 4.6 S 11 20 6 11 1022.5 1022.5 0.0
20/09:30am 12.7 8.2 2.3 49 4.6 SSW 15 20 8 11 1022.5 1022.5 0.0
20/09:00am 11.3 8.6 2.9 56 3.7 SW 6 9 3 5 1022.6 1022.6 0.0
20/08:30am 9.3 7.8 2.9 64 2.8 CALM 0 6 0 3 1022.5 1022.5 0.0
20/08:00am 6.7 4.5 3.3 79 1.5 NNE 4 7 2 4 1022.3 1022.3 0.0
20/07:30am 3.2 1.3 0.6 83 1.0 CALM 0 7 0 4 1022.2 1022.2 0.0
20/07:00am 0.9 -2.4 -1.0 87 0.7 ENE 6 7 3 4 1022.1 1022.1 0.0
20/06:30am -0.3 -3.8 -1.3 93 0.3 ENE 7 9 4 5 1022.1 1022.1 0.0
20/06:00am -1.5 -5.5 -2.3 94 0.2 ENE 9 11 5 6 1021.9 1021.8 0.0
20/05:30am -2.0 -5.5 -3.1 92 0.3 E 6 7 3 4 1021.8 1021.7 0.0
20/05:00am -2.1 -5.8 -3.1 93 0.2 E 7 11 4 6 1021.6 1021.5 0.0
20/04:30am -1.6 -4.0 -2.9 91 0.4 CALM 0 0 0 0 1021.2 1021.1 0.0
20/04:00am -1.3 -3.6 -2.3 93 0.3 CALM 0 0 0 0 1021.1 1021.0 0.0
20/03:30am -1.1 -3.4 -2.4 91 0.4 CALM 0 0 0 0 1021.0 1020.9 0.0
20/03:00am -0.6 -2.9 -2.3 88 0.6 CALM 0 0 0 0 1021.1 1021.0 0.0
20/02:30am -0.5 -2.8 -2.1 89 0.5 CALM 0 0 0 0 1021.3 1021.2 0.0
20/02:00am -0.1 -2.3 -1.7 89 0.6 CALM 0 0 0 0 1021.5 1021.4 0.0
20/01:30am 0.3 -1.9 -1.6 87 0.7 CALM 0 0 0 0 1021.8 1021.7 0.0
20/01:00am 1.2 -0.9 -1.0 85 0.8 CALM 0 0 0 0 1022.0 1021.9 0.0
20/12:30am 1.0 -1.1 -0.9 87 0.7 CALM 0 0 0 0 1022.0 1021.9 0.0
20/12:00am 1.6 -0.4 -0.3 87 0.7 CALM 0 0 0 0 1021.9 1021.8 0.0
 
Date/Time
EST
Temp
°C
App
Temp
°C
Dew
Point
°C
Rel
Hum
%
Delta-T
°C
Wind Press
QNH
hPa
Press
MSL
hPa
Rain since
9am
mm
Dir  Spd
km/h
Gust
km/h
Spd
kts
Gust
kts
19/11:30pm 1.1 -1.0 -1.0 86 0.8 CALM 0 0 0 0 1021.9 1021.8 0.0
19/11:00pm 2.6 0.5 -0.7 79 1.2 CALM 0 0 0 0 1022.0 1021.9 0.0
19/10:30pm 3.1 1.1 -0.2 79 1.2 CALM 0 0 0 0 1022.1 1022.1 0.0
19/10:00pm 3.0 1.0 0.1 81 1.1 CALM 0 0 0 0 1022.1 1022.1 0.0
19/09:30pm 4.0 2.0 0.0 75 1.5 CALM 0 0 0 0 1021.7 1021.6 0.0
19/09:00pm 4.5 2.5 -0.3 71 1.8 CALM 0 0 0 0 1021.6 1021.5 0.0
19/08:30pm 7.1 5.1 -0.1 60 2.9 CALM 0 0 0 0 1021.5 1021.4 0.0
19/08:00pm 8.2 6.3 0.4 58 3.2 CALM 0 0 0 0 1021.4 1021.3 0.0
19/07:30pm 9.1 5.9 0.8 56 3.4 SSW 7 9 4 5 1021.2 1021.1 0.0
19/07:00pm 8.6 4.5 0.1 55 3.4 SSW 11 13 6 7 1021.0 1020.9 0.0
19/06:30pm 10.2 5.7 0.0 49 4.2 SSW 13 15 7 8 1020.7 1020.6 0.0
19/06:00pm 12.6 7.3 -0.3 41 5.4 SSW 17 20 9 11 1020.4 1020.4 0.0
19/05:30pm 14.6 8.9 -0.7 35 6.5 SW 19 26 10 14 1020.1 1020.1 0.0
19/05:00pm 15.4 7.5 -1.6 31 7.1 SW 30 39 16 21 1019.8 1019.8 0.0
19/04:30pm 16.1 8.6 -1.5 30 7.4 SW 28 37 15 20 1019.5 1019.5 0.0
19/04:00pm 16.3 8.6 -0.4 32 7.2 SSW 30 39 16 21 1019.1 1019.0 0.0
19/03:30pm 16.5 9.2 -0.2 32 7.3 SW 28 41 15 22 1019.0 1018.9 0.0
19/03:00pm 16.6 9.0 0.3 33 7.1 SW 30 39 16 21 1019.0 1018.9 0.0
19/02:30pm 15.9 8.1 -0.8 32 7.1 SW 30 41 16 22 1019.2 1019.1 0.0
19/02:00pm 16.0 8.5 1.3 37 6.5 SW 30 35 16 19 1019.3 1019.2 0.0
19/01:30pm 16.0 9.0 1.7 38 6.4 SW 28 37 15 20 1019.7 1019.7 0.0
19/01:00pm 16.3 9.8 2.7 40 6.2 SW 26 39 14 21 1019.8 1019.8 0.0
19/12:30pm 15.6 8.1 1.0 37 6.5 SW 30 39 16 21 1020.3 1020.3 0.0

Other Formats:

Comma delimited format used in spreadsheet applications
http://www.bom.gov.au/fwo/IDN60801/IDN60801.95717.axf

JavaScript Object Notation format (JSON) in row-major order
http://www.bom.gov.au/fwo/IDN60801/IDN60801.95717.json